| time (UTC) | temp F | wind direction | speed knots | gust knots | rain 1hr in | rain 24hr in | rain mn in | humidity % | barometer mb |
| 20260507160003 | 60 | 88 | 1.7 | 6.1 | 0.00 | 0.00 | 0.00 | 51 | 1015.0 |
| 20260507155404 | 60 | 118 | 1.7 | 7.0 | 0.00 | 0.00 | 0.00 | 50 | 1015.0 |
| 20260507154505 | 60 | 117 | 0.9 | 4.3 | 0.00 | 0.00 | 0.00 | 49 | 1015.0 |
| 20260507153603 | 60 | 115 | 1.7 | 7.0 | 0.00 | 0.00 | 0.00 | 50 | 1015.1 |
| 20260507152918 | 61 | 109 | 2.6 | 7.8 | 0.00 | 0.00 | 0.00 | 48 | 1015.0 |
| 20260507151803 | 62 | 352 | 0.0 | 2.6 | 0.00 | 0.00 | 0.00 | 47 | 1015.0 |
| 20260507150908 | 62 | 351 | 0.0 | 0.9 | 0.00 | 0.00 | 0.00 | 43 | 1015.1 |
| 20260507150003 | 62 | 3 | 0.0 | 1.7 | 0.00 | 0.00 | 0.00 | 45 | 1015.1 |
| 20260507145405 | 61 | 55 | 0.0 | 1.7 | 0.00 | 0.00 | 0.00 | 46 | 1015.1 |
| 20260507144505 | 61 | 148 | 0.9 | 3.5 | 0.00 | 0.00 | 0.00 | 45 | 1015.2 |
| 20260507143604 | 61 | 122 | 0.9 | 3.5 | 0.00 | 0.00 | 0.00 | 45 | 1015.2 |
| 20260507142703 | 62 | 91 | 0.9 | 5.2 | 0.00 | 0.00 | 0.00 | 44 | 1015.2 |
| 20260507141805 | 62 | 99 | 0.0 | 1.7 | 0.00 | 0.00 | 0.00 | 46 | 1015.3 |
| 20260507140905 | 62 | 52 | 0.0 | 2.6 | 0.00 | 0.00 | 0.00 | 45 | 1015.3 |
| 20260507140005 | 61 | 340 | 0.9 | 3.5 | 0.00 | 0.00 | 0.00 | 47 | 1015.4 |
| 20260507135403 | 61 | 344 | 0.9 | 4.3 | 0.00 | 0.00 | 0.00 | 46 | 1015.4 |
| 20260507134505 | 61 | 159 | 1.7 | 5.2 | 0.00 | 0.00 | 0.00 | 46 | 1015.5 |
| 20260507133605 | 61 | 125 | 0.9 | 5.2 | 0.00 | 0.00 | 0.00 | 44 | 1015.5 |
| 20260507132703 | 61 | 168 | 0.0 | 2.6 | 0.00 | 0.00 | 0.00 | 48 | 1015.6 |
| 20260507131803 | 61 | 149 | 1.7 | 6.1 | 0.00 | 0.00 | 0.00 | 46 | 1015.6 |
| 20260507130905 | 62 | 150 | 0.9 | 4.3 | 0.00 | 0.00 | 0.00 | 47 | 1015.6 |
| 20260507130003 | 61 | 22 | 0.0 | 1.7 | 0.00 | 0.00 | 0.00 | 48 | 1015.7 |
| 20260507125405 | 60 | 14 | 0.9 | 3.5 | 0.00 | 0.00 | 0.00 | 49 | 1015.7 |
| 20260507124505 | 60 | 23 | 0.9 | 3.5 | 0.00 | 0.00 | 0.00 | 48 | 1015.8 |
| 20260507123604 | 60 | 32 | 0.9 | 2.6 | 0.00 | 0.00 | 0.00 | 50 | 1015.8 |
| 20260507122706 | 58 | 144 | 0.9 | 3.5 | 0.00 | 0.00 | 0.00 | 51 | 1015.9 |
| 20260507121805 | 58 | 127 | 0.0 | 1.7 | 0.00 | 0.00 | 0.00 | 50 | 1015.9 |
| 20260507120904 | 59 | 130 | 0.0 | 2.6 | 0.00 | 0.00 | 0.00 | 49 | 1015.9 |
| 20260507120005 | 61 | 43 | 0.9 | 3.5 | 0.00 | 0.00 | 0.00 | 48 | 1015.9 |
| 20260507115405 | 61 | 9 | 0.9 | 3.5 | 0.00 | 0.00 | 0.00 | 50 | 1015.9 |
| 20260507114504 | 59 | 166 | 0.9 | 2.6 | 0.00 | 0.00 | 0.00 | 52 | 1016.0 |
| 20260507113605 | 59 | 115 | 0.9 | 2.6 | 0.00 | 0.00 | 0.00 | 51 | 1016.0 |
| 20260507112705 | 60 | 91 | 0.9 | 6.1 | 0.00 | 0.00 | 0.00 | 51 | 1016.0 |
| 20260507111805 | 60 | 113 | 0.9 | 6.1 | 0.00 | 0.00 | 0.00 | 52 | 1016.1 |
| 20260507110903 | 60 | 45 | 0.9 | 3.5 | 0.00 | 0.00 | 0.00 | 52 | 1016.1 |
| 20260507110003 | 59 | 116 | 1.7 | 6.1 | 0.00 | 0.00 | 0.00 | 52 | 1016.2 |
| 20260507105618 | 58 | 112 | 2.6 | 6.1 | 0.00 | 0.00 | 0.00 | 54 | 1016.2 |
| 20260507104503 | 57 | 126 | 1.7 | 7.0 | 0.00 | 0.00 | 0.00 | 55 | 1016.3 |
| 20260507103819 | 57 | 138 | 1.7 | 5.2 | 0.00 | 0.00 | 0.00 | 55 | 1016.2 |
| 20260507102918 | 58 | 82 | 0.9 | 3.5 | 0.00 | 0.00 | 0.00 | 56 | 1016.4 |
| 20260507101806 | 58 | 126 | 1.7 | 5.2 | 0.00 | 0.00 | 0.00 | 58 | 1016.4 |
| 20260507100905 | 57 | 145 | 0.9 | 6.1 | 0.00 | 0.00 | 0.00 | 60 | 1016.5 |
| 20260507100003 | 58 | 31 | 1.7 | 6.1 | 0.00 | 0.00 | 0.00 | 60 | 1016.5 |
| 20260507095404 | 58 | 21 | 0.9 | 6.1 | 0.00 | 0.00 | 0.00 | 60 | 1016.5 |
| 20260507094503 | 57 | 27 | 0.9 | 2.6 | 0.00 | 0.00 | 0.00 | 64 | 1016.4 |
| 20260507093605 | 55 | 115 | 0.9 | 4.3 | 0.00 | 0.00 | 0.00 | 68 | 1016.5 |
| 20260507092703 | 54 | 133 | 0.0 | 2.6 | 0.00 | 0.00 | 0.00 | 68 | 1016.5 |
| 20260507091803 | 54 | 307 | 0.0 | 2.6 | 0.00 | 0.00 | 0.00 | 68 | 1016.5 |
| 20260507090904 | 55 | 140 | 1.7 | 7.8 | 0.00 | 0.00 | 0.00 | 69 | 1016.5 |
| 20260507090005 | 55 | 126 | 1.7 | 7.0 | 0.00 | 0.00 | 0.00 | 72 | 1016.5 |
| 20260507085404 | 54 | 144 | 0.9 | 6.1 | 0.00 | 0.00 | 0.00 | 75 | 1016.5 |
| 20260507084503 | 53 | 124 | 1.7 | 6.1 | 0.00 | 0.00 | 0.00 | 76 | 1016.6 |
| 20260507083604 | 52 | 144 | 0.9 | 2.6 | 0.00 | 0.00 | 0.00 | 78 | 1016.6 |
| 20260507082917 | 53 | 178 | 0.9 | 5.2 | 0.00 | 0.00 | 0.00 | 77 | 1016.6 |
| 20260507081805 | 53 | 96 | 0.9 | 3.5 | 0.00 | 0.00 | 0.00 | 80 | 1016.6 |
| 20260507080903 | 52 | 111 | 2.6 | 6.1 | 0.00 | 0.00 | 0.00 | 80 | 1016.6 |
| 20260507080005 | 52 | 130 | 0.9 | 3.5 | 0.00 | 0.00 | 0.00 | 80 | 1016.6 |
| 20260507075405 | 52 | 122 | 0.9 | 6.1 | 0.00 | 0.00 | 0.00 | 81 | 1016.5 |
| 20260507074718 | 52 | 118 | 0.9 | 6.1 | 0.00 | 0.00 | 0.00 | 82 | 1016.5 |
| 20260507073603 | 52 | 116 | 0.0 | 2.6 | 0.00 | 0.00 | 0.00 | 83 | 1016.5 |
| 20260507072703 | 51 | 125 | 0.0 | 1.7 | 0.00 | 0.00 | 0.00 | 84 | 1016.4 |
| 20260507072018 | 50 | 125 | 0.0 | 1.7 | 0.00 | 0.00 | 0.00 | 85 | 1016.4 |
| 20260507070905 | 49 | 105 | 0.9 | 2.6 | 0.00 | 0.00 | 0.00 | 86 | 1016.5 |
| 20260507070009 | 49 | 21 | 0.0 | 1.7 | 0.00 | 0.00 | 0.00 | 88 | 1016.5 |
| 20260507065405 | 48 | 0 | 0.0 | 0.0 | 0.00 | 0.00 | 0.00 | 89 | 1016.5 |
| 20260507064505 | 47 | 0 | 0.0 | 0.0 | 0.00 | 0.00 | 0.00 | 91 | 1016.4 |
| 20260507063603 | 45 | 16 | 0.0 | 0.9 | 0.00 | 0.00 | 0.00 | 92 | 1016.5 |
| 20260507062705 | 44 | 16 | 0.0 | 1.7 | 0.00 | 0.00 | 0.00 | 92 | 1016.5 |
| 20260507061803 | 43 | 11 | 0.9 | 2.6 | 0.00 | 0.00 | 0.00 | 92 | 1016.4 |
| 20260507061117 | 43 | 10 | 0.0 | 1.7 | 0.00 | 0.00 | 0.00 | 92 | 1016.4 |
| 20260507060004 | 43 | 11 | 0.9 | 3.5 | 0.00 | 0.00 | 0.00 | 92 | 1016.3 |
| 20260507055403 | 43 | 13 | 0.0 | 1.7 | 0.00 | 0.00 | 0.00 | 93 | 1016.3 |
| 20260507054503 | 43 | 11 | 0.0 | 3.5 | 0.00 | 0.00 | 0.00 | 93 | 1016.2 |
| 20260507053605 | 42 | 7 | 0.0 | 2.6 | 0.00 | 0.00 | 0.00 | 93 | 1016.1 |
| 20260507052703 | 42 | 0 | 0.0 | 0.0 | 0.00 | 0.00 | 0.00 | 93 | 1016.1 |
| 20260507051804 | 42 | 9 | 0.0 | 0.9 | 0.00 | 0.00 | 0.00 | 93 | 1016.1 |
| 20260507051119 | 41 | 0 | 0.0 | 0.0 | 0.00 | 0.00 | 0.00 | 93 | 1016.0 |
| 20260507050005 | 41 | 0 | 0.0 | 0.0 | 0.00 | 0.00 | 0.00 | 92 | 1015.9 |
| 20260507045405 | 41 | 9 | 0.0 | 1.7 | 0.00 | 0.00 | 0.00 | 92 | 1015.9 |
| 20260507044719 | 40 | 9 | 0.9 | 2.6 | 0.00 | 0.00 | 0.00 | 92 | 1015.8 |
| 20260507043603 | 40 | 3 | 0.9 | 2.6 | 0.00 | 0.00 | 0.00 | 92 | 1015.8 |
| 20260507042705 | 40 | 9 | 0.9 | 3.5 | 0.00 | 0.00 | 0.00 | 92 | 1015.8 |
| 20260507041803 | 40 | 360 | 0.9 | 2.6 | 0.00 | 0.00 | 0.00 | 92 | 1015.8 |
| 20260507041119 | 40 | 360 | 0.0 | 2.6 | 0.00 | 0.00 | 0.00 | 92 | 1015.9 |
| 20260507040003 | 40 | 359 | 0.9 | 2.6 | 0.00 | 0.00 | 0.00 | 91 | 1015.9 |
| 20260507035404 | 40 | 356 | 0.9 | 3.5 | 0.00 | 0.00 | 0.00 | 91 | 1015.8 |
| 20260507034508 | 41 | 355 | 0.0 | 2.6 | 0.00 | 0.00 | 0.00 | 91 | 1015.8 |
| 20260507033605 | 41 | 355 | 0.0 | 1.7 | 0.00 | 0.00 | 0.00 | 91 | 1015.8 |
| 20260507032705 | 42 | 3 | 0.0 | 2.6 | 0.00 | 0.00 | 0.00 | 91 | 1015.7 |
| 20260507031805 | 42 | 20 | 0.9 | 2.6 | 0.00 | 0.00 | 0.00 | 92 | 1015.7 |
| 20260507030905 | 42 | 20 | 0.9 | 2.6 | 0.00 | 0.00 | 0.00 | 92 | 1015.8 |
| 20260507030005 | 42 | 20 | 0.9 | 2.6 | 0.00 | 0.00 | 0.00 | 92 | 1015.8 |
| 20260507025619 | 42 | 18 | 0.9 | 2.6 | 0.00 | 0.00 | 0.00 | 92 | 1015.8 |
| 20260507024503 | 42 | 6 | 1.7 | 3.5 | 0.00 | 0.00 | 0.00 | 92 | 1015.7 |
| 20260507023818 | 42 | 8 | 0.9 | 3.5 | 0.00 | 0.00 | 0.00 | 92 | 1015.7 |
| 20260507022703 | 42 | 10 | 0.0 | 0.9 | 0.00 | 0.00 | 0.00 | 92 | 1015.8 |
| 20260507021805 | 41 | 12 | 0.9 | 2.6 | 0.00 | 0.00 | 0.00 | 92 | 1015.8 |
| 20260507020904 | 41 | 3 | 0.9 | 2.6 | 0.00 | 0.00 | 0.00 | 92 | 1015.8 |
| 20260507020004 | 41 | 5 | 0.9 | 2.6 | 0.00 | 0.00 | 0.00 | 91 | 1015.7 |
| 20260507015409 | 40 | 5 | 0.9 | 2.6 | 0.00 | 0.00 | 0.00 | 91 | 1015.7 |
| 20260507014503 | 40 | 5 | 0.0 | 2.6 | 0.00 | 0.00 | 0.00 | 91 | 1015.6 |
| 20260507013603 | 40 | 5 | 0.9 | 2.6 | 0.00 | 0.00 | 0.00 | 91 | 1015.6 |
| 20260507012706 | 41 | 5 | 0.9 | 2.6 | 0.00 | 0.00 | 0.00 | 91 | 1015.7 |
| 20260507011804 | 41 | 5 | 0.0 | 2.6 | 0.00 | 0.00 | 0.00 | 91 | 1015.7 |
| 20260507010903 | 41 | 5 | 0.0 | 1.7 | 0.00 | 0.00 | 0.00 | 90 | 1015.7 |
| 20260507010003 | 41 | 5 | 0.9 | 2.6 | 0.00 | 0.00 | 0.00 | 91 | 1015.6 |
| 20260507005616 | 41 | 4 | 0.9 | 2.6 | 0.00 | 0.00 | 0.00 | 91 | 1015.6 |
| 20260507004503 | 41 | 359 | 0.9 | 2.6 | 0.00 | 0.00 | 0.00 | 90 | 1015.5 |
| 20260507003603 | 41 | 359 | 1.7 | 3.5 | 0.00 | 0.00 | 0.00 | 90 | 1015.6 |
| 20260507002703 | 41 | 5 | 0.0 | 1.7 | 0.00 | 0.00 | 0.00 | 90 | 1015.6 |
| 20260507001804 | 42 | 0 | 0.0 | 0.0 | 0.00 | 0.00 | 0.00 | 89 | 1015.6 |
| 20260507001117 | 42 | 0 | 0.0 | 0.0 | 0.00 | 0.00 | 0.00 | 89 | 1015.7 |
| 20260507000003 | 42 | 0 | 0.0 | 0.0 | 0.00 | 0.00 | 0.00 | 88 | 1015.7 |
| 20260506235403 | 42 | 5 | 0.0 | 0.9 | 0.00 | 0.00 | 0.00 | 88 | 1015.6 |
| 20260506234505 | 43 | 15 | 0.0 | 0.9 | 0.00 | 0.00 | 0.00 | 88 | 1015.5 |
| 20260506233605 | 43 | 15 | 0.0 | 1.7 | 0.00 | 0.00 | 0.00 | 88 | 1015.5 |
| 20260506232703 | 43 | 14 | 0.9 | 2.6 | 0.00 | 0.00 | 0.00 | 88 | 1015.5 |
| 20260506231803 | 44 | 11 | 0.0 | 1.7 | 0.00 | 0.00 | 0.00 | 88 | 1015.6 |
| 20260506230905 | 44 | 5 | 0.0 | 1.7 | 0.00 | 0.00 | 0.00 | 87 | 1015.6 |
| 20260506230003 | 44 | 2 | 0.9 | 3.5 | 0.00 | 0.00 | 0.00 | 87 | 1015.6 |
| 20260506225618 | 44 | 357 | 0.9 | 3.5 | 0.00 | 0.00 | 0.00 | 87 | 1015.6 |
| 20260506224505 | 45 | 355 | 0.0 | 1.7 | 0.00 | 0.00 | 0.00 | 86 | 1015.6 |
| 20260506223605 | 45 | 355 | 0.0 | 1.7 | 0.00 | 0.00 | 0.00 | 86 | 1015.5 |
| 20260506222704 | 45 | 16 | 0.0 | 2.6 | 0.00 | 0.00 | 0.00 | 85 | 1015.5 |
| 20260506221805 | 46 | 18 | 0.0 | 2.6 | 0.00 | 0.00 | 0.00 | 84 | 1015.4 |
| 20260506221118 | 46 | 5 | 0.0 | 0.9 | 0.00 | 0.00 | 0.00 | 84 | 1015.4 |
| 20260506220218 | 46 | 17 | 0.0 | 1.7 | 0.00 | 0.00 | 0.00 | 83 | 1015.4 |
| 20260506215405 | 47 | 29 | 0.0 | 2.6 | 0.00 | 0.00 | 0.00 | 83 | 1015.3 |
| 20260506214505 | 47 | 30 | 0.9 | 3.5 | 0.00 | 0.00 | 0.00 | 82 | 1015.3 |
| 20260506213603 | 48 | 28 | 0.0 | 3.5 | 0.00 | 0.00 | 0.00 | 81 | 1015.3 |
| 20260506212703 | 48 | 32 | 0.9 | 3.5 | 0.00 | 0.00 | 0.00 | 80 | 1015.3 |
| 20260506211803 | 48 | 20 | 0.0 | 2.6 | 0.00 | 0.00 | 0.00 | 80 | 1015.3 |
| 20260506210904 | 49 | 19 | 0.9 | 3.5 | 0.00 | 0.00 | 0.00 | 79 | 1015.3 |
| 20260506210006 | 49 | 25 | 0.9 | 5.2 | 0.00 | 0.00 | 0.00 | 78 | 1015.1 |
| 20260506205620 | 49 | 28 | 0.9 | 5.2 | 0.00 | 0.00 | 0.00 | 77 | 1015.1 |
| 20260506204503 | 49 | 9 | 1.7 | 7.8 | 0.00 | 0.00 | 0.00 | 76 | 1015.0 |
| 20260506203603 | 50 | 21 | 0.9 | 4.3 | 0.00 | 0.00 | 0.00 | 76 | 1014.9 |
| 20260506202705 | 50 | 13 | 0.9 | 4.3 | 0.00 | 0.00 | 0.00 | 75 | 1014.8 |
| 20260506201803 | 50 | 1 | 2.6 | 7.0 | 0.00 | 0.00 | 0.00 | 74 | 1014.8 |
| 20260506200903 | 51 | 6 | 2.6 | 9.6 | 0.00 | 0.00 | 0.00 | 73 | 1014.7 |
| 20260506200005 | 51 | 9 | 3.5 | 9.6 | 0.00 | 0.00 | 0.00 | 73 | 1014.7 |
| 20260506195405 | 51 | 8 | 2.6 | 9.6 | 0.00 | 0.00 | 0.00 | 72 | 1014.6 |
| 20260506194503 | 51 | 5 | 1.7 | 7.0 | 0.00 | 0.00 | 0.00 | 71 | 1014.4 |
| 20260506193603 | 52 | 358 | 1.7 | 7.0 | 0.00 | 0.00 | 0.00 | 69 | 1014.4 |
| 20260506192917 | 52 | 42 | 0.9 | 3.5 | 0.00 | 0.00 | 0.00 | 68 | 1014.3 |
| 20260506191804 | 52 | 4 | 0.9 | 4.3 | 0.00 | 0.00 | 0.00 | 67 | 1014.3 |
| 20260506190904 | 52 | 351 | 0.9 | 3.5 | 0.00 | 0.00 | 0.00 | 65 | 1014.2 |
| 20260506190004 | 52 | 359 | 1.7 | 6.1 | 0.00 | 0.00 | 0.00 | 64 | 1014.1 |
| 20260506185404 | 52 | 340 | 1.7 | 8.7 | 0.00 | 0.00 | 0.00 | 64 | 1014.2 |
| 20260506184505 | 52 | 340 | 1.7 | 8.7 | 0.00 | 0.00 | 0.00 | 64 | 1014.1 |
| 20260506183604 | 52 | 331 | 1.7 | 5.2 | 0.00 | 0.00 | 0.00 | 63 | 1014.0 |
| 20260506182704 | 53 | 340 | 0.9 | 3.5 | 0.00 | 0.00 | 0.00 | 63 | 1013.9 |
| 20260506181806 | 53 | 343 | 1.7 | 4.3 | 0.00 | 0.00 | 0.00 | 62 | 1013.9 |
| 20260506180903 | 53 | 325 | 1.7 | 5.2 | 0.00 | 0.00 | 0.00 | 63 | 1013.8 |
| 20260506180218 | 53 | 330 | 1.7 | 6.1 | 0.00 | 0.00 | 0.00 | 63 | 1013.7 |
| 20260506175404 | 54 | 352 | 1.7 | 6.1 | 0.00 | 0.00 | 0.00 | 63 | 1013.5 |
| 20260506174720 | 54 | 334 | 2.6 | 7.0 | 0.00 | 0.00 | 0.00 | 61 | 1013.5 |
| 20260506173603 | 54 | 357 | 2.6 | 8.7 | 0.00 | 0.00 | 0.00 | 62 | 1013.5 |
| 20260506172703 | 54 | 345 | 2.6 | 8.7 | 0.00 | 0.00 | 0.00 | 61 | 1013.3 |
| 20260506171803 | 55 | 342 | 2.6 | 7.8 | 0.00 | 0.00 | 0.00 | 60 | 1013.3 |
| 20260506170903 | 55 | 11 | 2.6 | 7.8 | 0.00 | 0.00 | 0.00 | 59 | 1013.3 |
| 20260506170005 | 55 | 11 | 2.6 | 8.7 | 0.00 | 0.00 | 0.00 | 59 | 1013.3 |
| 20260506165404 | 56 | 7 | 2.6 | 8.7 | 0.00 | 0.00 | 0.00 | 59 | 1013.4 |
| 20260506164505 | 55 | 359 | 2.6 | 8.7 | 0.00 | 0.00 | 0.00 | 60 | 1013.3 |
| 20260506163605 | 55 | 11 | 2.6 | 9.6 | 0.00 | 0.00 | 0.00 | 59 | 1013.3 |
| 20260506162703 | 56 | 16 | 2.6 | 7.8 | 0.00 | 0.00 | 0.00 | 58 | 1013.3 |
| 20260506161805 | 56 | 352 | 3.5 | 10.4 | 0.00 | 0.00 | 0.00 | 58 | 1013.4 |
| 20260506160906 | 56 | 350 | 2.6 | 10.4 | 0.00 | 0.00 | 0.00 | 57 | 1013.3 |
| 20260506160221 | 57 | 10 | 3.5 | 11.3 | 0.00 | 0.00 | 0.00 | 57 | 1013.5 |